• pl
  • eng

Awiacja
TAF FC 01:00 01.01.1970

TAF EPLB 190830Z 1909/1918 08012KT 9999 SCT008 BKN030
TEMPO 1909/1918 -RASN BKN014
PROB40 TEMPO 1914/1918 3000 RASN BKN008=

TAF EPRA 190830Z 1909/1918 08010KT 7000 BKN015
TEMPO 1909/1911 4000 BR BKN007 OVC011=

TAF EPSY 190830Z 1909/1918 07008KT 9999 OVC014
TEMPO 1910/1915 OVC018
PROB40 TEMPO 1911/1918 5000 -SHRASN BKN008 BKN012CB=

TAF EPZG 190830Z 1909/1918 06012KT 9999 BKN020
TEMPO 1909/1918 08015G25KT BKN011
PROB30 TEMPO 1909/1911 -SHRA BKN008 BKN014CB=
Awiacja.imgw.pl jest pogodowym serwisem informacyjnym
Instytutu Meteorologii i Gospodarki Wodnej Państwowego Instytutu Badawczego.
Copyright IMGW PIB 2009-2011© Wszelkie prawa zastrzeżone.